createdAt,value
2022-09-17T00:00:52.371Z,2.20
2022-09-17T00:01:52.376Z,2.00
2022-09-17T00:02:52.379Z,2.10
2022-09-17T00:03:52.309Z,1.90
2022-09-17T00:04:52.312Z,2.20
2022-09-17T00:05:52.283Z,2.00
2022-09-17T00:06:52.277Z,1.90
2022-09-17T00:07:52.256Z,2.00
2022-09-17T00:08:52.265Z,2.00
2022-09-17T00:09:52.251Z,2.00
2022-09-17T00:10:52.245Z,1.90
2022-09-17T00:11:52.258Z,1.90
2022-09-17T00:12:52.209Z,2.40
2022-09-17T00:13:52.317Z,2.60
2022-09-17T00:14:52.189Z,2.20
2022-09-17T00:15:52.188Z,1.90
2022-09-17T00:16:52.158Z,2.20
2022-09-17T00:17:52.182Z,2.00
2022-09-17T00:18:52.145Z,2.00
2022-09-17T00:19:52.132Z,2.10
2022-09-17T00:20:52.130Z,1.90
2022-09-17T00:21:52.098Z,2.20
2022-09-17T00:22:52.085Z,2.20
2022-09-17T00:23:52.095Z,2.10
2022-09-17T00:24:52.110Z,2.00
2022-09-17T00:25:52.064Z,1.70
2022-09-17T00:26:52.043Z,1.80
2022-09-17T00:27:52.061Z,2.20
2022-09-17T00:28:52.012Z,1.80
2022-09-17T00:29:52.018Z,2.00
2022-09-17T00:30:52.048Z,2.10
2022-09-17T00:31:51.986Z,2.60
2022-09-17T00:32:51.971Z,2.20
2022-09-17T00:33:51.984Z,2.10
2022-09-17T00:34:51.955Z,2.50
2022-09-17T00:35:51.944Z,1.90
2022-09-17T00:36:51.925Z,2.30
2022-09-17T00:37:51.914Z,2.10
2022-09-17T00:38:51.931Z,2.40
2022-09-17T00:39:51.960Z,2.20
2022-09-17T00:40:51.886Z,2.60
2022-09-17T00:41:51.891Z,2.60
2022-09-17T00:42:51.908Z,2.20
2022-09-17T00:43:51.867Z,2.10
2022-09-17T00:44:51.890Z,2.10
2022-09-17T00:45:51.828Z,2.30
2022-09-17T00:46:51.859Z,2.40
2022-09-17T00:47:51.795Z,1.80
2022-09-17T00:48:51.821Z,1.90
2022-09-17T00:49:51.826Z,2.80
2022-09-17T00:50:51.767Z,2.20
2022-09-17T00:51:51.782Z,2.30
2022-09-17T00:52:51.763Z,2.40
2022-09-17T00:53:51.738Z,2.30
2022-09-17T00:54:51.753Z,2.10
2022-09-17T00:55:51.726Z,2.40
2022-09-17T00:56:51.727Z,1.80
2022-09-17T00:57:51.712Z,2.60
2022-09-17T00:58:51.695Z,1.90
2022-09-17T00:59:51.698Z,2.20
2022-09-17T01:00:51.758Z,2.20
2022-09-17T01:01:51.711Z,1.90
2022-09-17T01:02:51.670Z,2.60
2022-09-17T01:03:51.641Z,2.60
2022-09-17T01:04:51.622Z,2.30
2022-09-17T01:05:51.608Z,2.40
2022-09-17T01:06:51.614Z,2.70
2022-09-17T01:07:51.581Z,2.10
2022-09-17T01:08:51.617Z,2.70
2022-09-17T01:09:51.563Z,2.00
2022-09-17T01:10:51.551Z,2.60
2022-09-17T01:11:51.546Z,2.40
2022-09-17T01:12:51.561Z,2.60
2022-09-17T01:13:51.526Z,2.10
2022-09-17T01:14:51.585Z,2.30
2022-09-17T01:15:51.603Z,2.40
2022-09-17T01:16:51.522Z,2.30
2022-09-17T01:17:51.507Z,2.20
2022-09-17T01:18:51.465Z,2.60
2022-09-17T01:19:51.452Z,2.10
2022-09-17T01:20:51.443Z,2.30
2022-09-17T01:21:51.473Z,2.40
2022-09-17T01:22:51.426Z,2.70
2022-09-17T01:23:51.410Z,2.60
2022-09-17T01:24:51.396Z,2.30
2022-09-17T01:25:51.465Z,2.50
2022-09-17T01:26:51.374Z,2.70
2022-09-17T01:27:51.386Z,2.60
2022-09-17T01:28:51.357Z,2.10
2022-09-17T01:29:51.341Z,2.40
2022-09-17T01:30:51.328Z,2.60
2022-09-17T01:31:51.378Z,2.90
2022-09-17T01:32:51.337Z,2.40
2022-09-17T01:33:51.287Z,2.80
2022-09-17T01:34:51.286Z,3.00
2022-09-17T01:35:51.292Z,2.50
2022-09-17T01:36:51.278Z,2.60
2022-09-17T01:37:51.263Z,2.00
2022-09-17T01:38:51.281Z,2.80
2022-09-17T01:39:51.259Z,3.00
2022-09-17T01:40:51.225Z,2.20
2022-09-17T01:41:51.217Z,2.40
2022-09-17T01:42:51.190Z,2.90
2022-09-17T01:43:51.212Z,2.60
2022-09-17T01:44:51.248Z,2.90
2022-09-17T01:45:51.164Z,2.50
2022-09-17T01:46:51.184Z,2.40
2022-09-17T01:47:51.155Z,2.50
2022-09-17T01:48:51.126Z,3.00
2022-09-17T01:49:51.135Z,2.90
2022-09-17T01:50:51.125Z,2.20
2022-09-17T01:51:51.091Z,2.20
2022-09-17T01:52:51.095Z,2.80
2022-09-17T01:53:51.200Z,2.50
2022-09-17T01:54:51.065Z,2.60
2022-09-17T01:55:51.086Z,2.50
2022-09-17T01:56:51.034Z,2.80
2022-09-17T01:57:51.033Z,2.90
2022-09-17T01:58:51.007Z,2.30
2022-09-17T01:59:51.005Z,2.70
2022-09-17T02:00:51.020Z,2.60
2022-09-17T02:01:51.045Z,2.60
2022-09-17T02:02:50.966Z,2.40
2022-09-17T02:03:50.962Z,2.10
2022-09-17T02:04:50.956Z,2.70
2022-09-17T02:05:50.934Z,2.80
2022-09-17T02:06:50.937Z,2.20
2022-09-17T02:07:50.930Z,3.00
2022-09-17T02:08:50.896Z,2.10
2022-09-17T02:09:50.876Z,2.20
2022-09-17T02:10:50.887Z,2.50
2022-09-17T02:11:50.856Z,2.60
2022-09-17T02:12:50.876Z,2.30
2022-09-17T02:13:50.839Z,3.10
2022-09-17T02:14:50.839Z,3.80
2022-09-17T02:15:50.846Z,2.50
2022-09-17T02:16:50.806Z,2.80
2022-09-17T02:17:50.825Z,2.60
2022-09-17T02:18:50.789Z,2.60
2022-09-17T02:19:50.771Z,2.40
2022-09-17T02:20:50.787Z,2.50
2022-09-17T02:21:50.756Z,2.40
2022-09-17T02:22:50.762Z,3.00
2022-09-17T02:23:50.730Z,3.00
2022-09-17T02:24:50.759Z,2.50
2022-09-17T02:25:50.716Z,2.80
2022-09-17T02:26:50.691Z,2.90
2022-09-17T02:27:50.697Z,2.50
2022-09-17T02:28:50.680Z,3.10
2022-09-17T02:29:50.661Z,2.60
2022-09-17T02:30:50.681Z,2.70
2022-09-17T02:31:50.677Z,2.80
2022-09-17T02:32:50.621Z,2.80
2022-09-17T02:33:50.625Z,2.60
2022-09-17T02:34:50.642Z,2.40
2022-09-17T02:35:50.648Z,2.80
2022-09-17T02:36:50.588Z,2.50
2022-09-17T02:37:50.570Z,3.00
2022-09-17T02:38:50.563Z,2.50
2022-09-17T02:39:50.600Z,2.50
2022-09-17T02:40:50.547Z,2.80
2022-09-17T02:41:50.544Z,2.80
2022-09-17T02:42:50.521Z,2.90
2022-09-17T02:43:50.624Z,2.50
2022-09-17T02:44:50.502Z,2.80
2022-09-17T02:45:50.515Z,2.90
2022-09-17T02:46:50.549Z,2.80
2022-09-17T02:47:50.455Z,2.80
2022-09-17T02:48:50.455Z,3.00
2022-09-17T02:49:50.435Z,2.90
2022-09-17T02:50:50.436Z,2.80
2022-09-17T02:51:50.425Z,2.90
2022-09-17T02:52:50.427Z,3.10
2022-09-17T02:53:50.395Z,2.70
2022-09-17T02:54:50.390Z,2.60
2022-09-17T02:55:50.372Z,2.10
2022-09-17T02:56:50.388Z,2.30
2022-09-17T02:57:50.431Z,2.40
2022-09-17T02:58:50.334Z,2.10
2022-09-17T02:59:50.339Z,3.00
2022-09-17T03:00:50.364Z,2.50
2022-09-17T03:01:50.362Z,2.40
2022-09-17T03:02:50.299Z,2.70
2022-09-17T03:03:50.331Z,2.40
2022-09-17T03:04:50.270Z,2.20
2022-09-17T03:05:50.259Z,2.30
2022-09-17T03:06:50.253Z,2.30
2022-09-17T03:07:50.234Z,2.90
2022-09-17T03:08:50.247Z,2.30
2022-09-17T03:09:50.212Z,3.30
2022-09-17T03:10:50.205Z,2.70
2022-09-17T03:11:50.180Z,2.50
2022-09-17T03:12:50.190Z,2.20
2022-09-17T03:13:50.195Z,2.60
2022-09-17T03:14:50.155Z,2.20
2022-09-17T03:15:50.229Z,2.40
2022-09-17T03:16:50.135Z,2.50
2022-09-17T03:17:53.275Z,2.10
2022-09-17T03:18:50.126Z,2.30
2022-09-17T03:19:50.134Z,2.50
2022-09-17T03:20:50.104Z,2.30
2022-09-17T03:21:50.076Z,2.70
2022-09-17T03:22:50.064Z,2.40
2022-09-17T03:23:50.061Z,2.20
2022-09-17T03:24:50.044Z,2.00
2022-09-17T03:25:50.044Z,2.20
2022-09-17T03:26:50.024Z,2.10
2022-09-17T03:27:50.025Z,2.60
2022-09-17T03:28:50.000Z,2.80
2022-09-17T03:29:49.984Z,2.40
2022-09-17T03:30:50.013Z,2.30
2022-09-17T03:31:50.080Z,2.50
2022-09-17T03:32:49.967Z,2.40
2022-09-17T03:33:49.947Z,2.10
2022-09-17T03:34:49.954Z,2.60
2022-09-17T03:35:49.922Z,2.20
2022-09-17T03:36:49.953Z,2.40
2022-09-17T03:37:49.911Z,2.80
2022-09-17T03:38:49.888Z,2.70
2022-09-17T03:39:49.946Z,2.60
2022-09-17T03:40:49.877Z,2.40
2022-09-17T03:41:49.860Z,2.30
2022-09-17T03:42:49.858Z,2.60
2022-09-17T03:43:49.866Z,2.30
2022-09-17T03:44:49.854Z,2.20
2022-09-17T03:45:50.772Z,2.60
2022-09-17T03:46:49.907Z,1.80
2022-09-17T03:47:49.796Z,2.30
2022-09-17T03:48:49.784Z,2.40
2022-09-17T03:49:50.208Z,2.80
2022-09-17T03:50:49.760Z,2.40
2022-09-17T03:51:49.759Z,2.50
2022-09-17T03:52:49.733Z,2.10
2022-09-17T03:53:49.852Z,2.10
2022-09-17T03:54:49.756Z,2.20
2022-09-17T03:55:49.701Z,2.20
2022-09-17T03:56:49.691Z,2.30
2022-09-17T03:57:49.672Z,2.80
2022-09-17T03:58:49.665Z,2.50
2022-09-17T03:59:49.652Z,2.70
2022-09-17T04:00:49.686Z,2.10
2022-09-17T04:01:49.772Z,2.10
2022-09-17T04:02:49.653Z,2.70
2022-09-17T04:03:49.630Z,2.60
2022-09-17T04:04:49.633Z,2.30
2022-09-17T04:05:49.591Z,2.30
2022-09-17T04:06:49.589Z,2.40
2022-09-17T04:07:49.558Z,2.80
2022-09-17T04:08:49.555Z,2.30
2022-09-17T04:09:49.550Z,2.40
2022-09-17T04:10:49.623Z,2.10
2022-09-17T04:11:49.536Z,1.80
2022-09-17T04:12:49.535Z,2.40
2022-09-17T04:13:49.588Z,2.70
2022-09-17T04:14:49.496Z,2.00
2022-09-17T04:15:49.517Z,2.30
2022-09-17T04:16:49.471Z,2.40
2022-09-17T04:17:49.487Z,2.70
2022-09-17T04:18:49.456Z,2.10
2022-09-17T04:19:49.465Z,2.20
2022-09-17T04:20:49.472Z,2.10
2022-09-17T04:21:50.372Z,2.40
2022-09-17T04:22:49.467Z,2.00
2022-09-17T04:23:49.409Z,2.10
2022-09-17T04:24:49.408Z,2.10
2022-09-17T04:25:49.379Z,2.40
2022-09-17T04:26:49.541Z,2.50
2022-09-17T04:27:49.344Z,2.20
2022-09-17T04:28:49.431Z,1.90
2022-09-17T04:29:49.318Z,2.10
2022-09-17T04:30:49.341Z,2.20
2022-09-17T04:31:49.310Z,2.50
2022-09-17T04:32:49.315Z,2.50
2022-09-17T04:33:49.283Z,2.40
2022-09-17T04:34:49.261Z,2.30
2022-09-17T04:35:49.277Z,2.20
2022-09-17T04:36:49.315Z,2.60
2022-09-17T04:37:49.240Z,2.90
2022-09-17T04:38:49.222Z,2.20
2022-09-17T04:39:49.335Z,2.50
2022-09-17T04:40:49.232Z,2.00
2022-09-17T04:41:49.192Z,1.90
2022-09-17T04:42:49.185Z,2.40
2022-09-17T04:43:49.212Z,2.80
2022-09-17T04:44:49.154Z,2.30
2022-09-17T04:45:49.147Z,2.70
2022-09-17T04:46:49.221Z,2.70
2022-09-17T04:47:49.134Z,2.30
2022-09-17T04:48:49.334Z,2.10
2022-09-17T04:49:49.123Z,2.50
2022-09-17T04:50:49.373Z,3.00
2022-09-17T04:51:49.116Z,2.50
2022-09-17T04:52:49.131Z,2.70
2022-09-17T04:53:49.053Z,3.00
2022-09-17T04:54:49.178Z,2.40
2022-09-17T04:55:49.026Z,3.20
2022-09-17T04:56:49.116Z,2.50
2022-09-17T04:57:49.466Z,3.00
2022-09-17T04:58:49.159Z,2.30
2022-09-17T04:59:49.026Z,2.40
2022-09-17T05:00:49.102Z,2.80
2022-09-17T05:01:50.505Z,2.50
2022-09-17T05:02:48.980Z,2.60
2022-09-17T05:03:49.005Z,2.30
2022-09-17T05:04:48.958Z,2.50
2022-09-17T05:05:49.103Z,2.00
2022-09-17T05:06:48.959Z,2.40
2022-09-17T05:07:49.042Z,2.00
2022-09-17T05:08:48.889Z,3.00
2022-09-17T05:09:48.926Z,2.90
2022-09-17T05:10:48.868Z,2.80
2022-09-17T05:11:48.895Z,2.10
2022-09-17T05:12:48.859Z,2.30
2022-09-17T05:13:48.886Z,2.60
2022-09-17T05:14:48.844Z,2.20
2022-09-17T05:15:49.115Z,3.10
2022-09-17T05:16:48.801Z,2.70
2022-09-17T05:17:49.753Z,1.70
2022-09-17T05:18:49.083Z,2.10
2022-09-17T05:19:48.782Z,2.40
2022-09-17T05:20:48.779Z,2.70
2022-09-17T05:21:48.751Z,1.90
2022-09-17T05:22:48.781Z,2.90
2022-09-17T05:23:48.808Z,2.10
2022-09-17T05:24:48.752Z,2.10
2022-09-17T05:25:48.733Z,2.20
2022-09-17T05:26:48.782Z,2.30
2022-09-17T05:27:48.678Z,2.40
2022-09-17T05:28:48.721Z,2.00
2022-09-17T05:29:48.653Z,2.20
2022-09-17T05:30:48.716Z,2.00
2022-09-17T05:31:48.805Z,2.20
2022-09-17T05:32:48.661Z,2.00
2022-09-17T05:33:48.640Z,2.40
2022-09-17T05:35:00.691Z,2.00
2022-09-17T05:35:48.624Z,2.10
2022-09-17T05:36:48.799Z,2.30
2022-09-17T05:37:48.741Z,1.90
2022-09-17T05:38:48.556Z,1.80
2022-09-17T05:39:48.560Z,1.90
2022-09-17T05:40:48.537Z,2.00
2022-09-17T05:41:48.531Z,2.30
2022-09-17T05:42:48.526Z,2.00
2022-09-17T05:43:48.581Z,2.40
2022-09-17T05:44:48.499Z,2.20
2022-09-17T05:45:48.482Z,2.40
2022-09-17T05:46:48.552Z,2.10
2022-09-17T05:47:48.468Z,2.40
2022-09-17T05:48:48.448Z,2.30
2022-09-17T05:49:48.478Z,2.10
2022-09-17T05:50:48.430Z,2.20
2022-09-17T05:51:48.610Z,2.80
2022-09-17T05:52:48.399Z,2.70
2022-09-17T05:53:48.429Z,1.60
2022-09-17T05:54:48.391Z,3.10
2022-09-17T05:55:48.401Z,2.00
2022-09-17T05:56:48.357Z,1.90
2022-09-17T05:57:48.356Z,2.30
2022-09-17T05:58:48.325Z,1.80
2022-09-17T05:59:48.325Z,2.00
2022-09-17T06:00:48.331Z,2.50
2022-09-17T06:01:48.879Z,1.90
2022-09-17T06:02:48.368Z,2.30
2022-09-17T06:03:53.496Z,2.40
2022-09-17T06:04:48.283Z,2.20
2022-09-17T06:05:49.230Z,2.20
2022-09-17T06:06:48.240Z,2.20
2022-09-17T06:07:48.227Z,2.30
2022-09-17T06:08:48.571Z,2.00
2022-09-17T06:09:48.229Z,2.10
2022-09-17T06:10:48.226Z,2.00
2022-09-17T06:11:48.187Z,2.10
2022-09-17T06:12:48.210Z,2.20
2022-09-17T06:13:48.261Z,1.90
2022-09-17T06:14:48.152Z,2.30
2022-09-17T06:15:48.205Z,1.90
2022-09-17T06:16:48.140Z,2.10
2022-09-17T06:17:48.120Z,2.50
2022-09-17T06:18:48.144Z,1.90
2022-09-17T06:19:48.178Z,2.00
2022-09-17T06:20:48.260Z,2.20
2022-09-17T06:21:48.149Z,2.30
2022-09-17T06:22:48.119Z,2.10
2022-09-17T06:23:48.093Z,2.00
2022-09-17T06:24:48.145Z,2.50
2022-09-17T06:25:48.412Z,1.70
2022-09-17T06:26:48.185Z,1.90
2022-09-17T06:27:48.068Z,2.30
2022-09-17T06:28:49.050Z,2.30
2022-09-17T06:29:48.014Z,2.10
2022-09-17T06:30:48.018Z,2.20
2022-09-17T06:31:48.157Z,2.20
2022-09-17T06:32:48.037Z,2.20
2022-09-17T06:33:47.939Z,1.90
2022-09-17T06:34:47.929Z,2.10
2022-09-17T06:35:47.924Z,2.40
2022-09-17T06:36:47.934Z,2.30
2022-09-17T06:37:47.894Z,2.50
2022-09-17T06:38:47.913Z,2.40
2022-09-17T06:39:47.870Z,2.00
2022-09-17T06:40:47.915Z,2.20
2022-09-17T06:41:47.887Z,4.10
2022-09-17T06:42:47.892Z,2.40
2022-09-17T06:43:47.832Z,2.30
2022-09-17T06:44:47.866Z,2.30
2022-09-17T06:45:47.804Z,2.30
2022-09-17T06:46:47.858Z,2.10
2022-09-17T06:47:47.814Z,2.20
2022-09-17T06:48:47.783Z,1.80
2022-09-17T06:49:47.773Z,2.20
2022-09-17T06:50:47.752Z,1.80
2022-09-17T06:51:47.773Z,2.50
2022-09-17T06:52:47.725Z,2.40
2022-09-17T06:53:47.787Z,2.60
2022-09-17T06:54:47.728Z,2.00
2022-09-17T06:55:47.709Z,2.00
2022-09-17T06:56:47.684Z,1.60
2022-09-17T06:57:47.716Z,1.90
2022-09-17T06:58:47.916Z,2.00
2022-09-17T06:59:47.651Z,2.30
2022-09-17T07:00:47.667Z,2.30
2022-09-17T07:01:47.675Z,1.90
2022-09-17T07:02:47.631Z,2.00
2022-09-17T07:03:48.408Z,2.00
2022-09-17T07:04:47.592Z,1.90
2022-09-17T07:05:47.697Z,2.00
2022-09-17T07:06:47.610Z,1.90
2022-09-17T07:07:47.683Z,2.10
2022-09-17T07:08:47.848Z,2.20
2022-09-17T07:09:47.579Z,2.10
2022-09-17T07:10:47.577Z,2.10
2022-09-17T07:11:47.731Z,2.10
2022-09-17T07:12:49.909Z,2.30
2022-09-17T07:13:47.531Z,2.10
2022-09-17T07:14:47.592Z,2.10
2022-09-17T07:15:47.627Z,1.80
2022-09-17T07:16:47.538Z,1.90
2022-09-17T07:17:48.140Z,2.10
2022-09-17T07:18:47.508Z,1.70
2022-09-17T07:19:47.552Z,2.60
2022-09-17T07:20:47.536Z,2.00
2022-09-17T07:21:47.465Z,2.70
2022-09-17T07:22:47.467Z,2.00
2022-09-17T07:23:47.413Z,1.90
2022-09-17T07:24:47.402Z,1.80
2022-09-17T07:25:47.445Z,2.20
2022-09-17T07:26:47.442Z,1.70
2022-09-17T07:27:48.113Z,2.30
2022-09-17T07:28:47.397Z,2.00
2022-09-17T07:29:48.764Z,2.60
2022-09-17T07:30:47.365Z,1.80
2022-09-17T07:31:47.551Z,2.30
2022-09-17T07:32:47.297Z,2.30
2022-09-17T07:33:47.278Z,2.20
2022-09-17T07:34:47.314Z,2.10
2022-09-17T07:35:47.252Z,2.00
2022-09-17T07:36:47.239Z,1.90
2022-09-17T07:37:47.239Z,2.00
2022-09-17T07:38:48.706Z,2.20
2022-09-17T07:39:48.647Z,2.20
2022-09-17T07:40:47.240Z,1.90
2022-09-17T07:41:47.595Z,2.30
2022-09-17T07:42:47.176Z,1.70
2022-09-17T07:43:47.207Z,1.70
2022-09-17T07:44:47.167Z,1.80
2022-09-17T07:45:47.157Z,1.70
2022-09-17T07:46:47.521Z,2.00
2022-09-17T07:47:48.066Z,2.20
2022-09-17T07:48:47.118Z,2.40
2022-09-17T07:49:47.133Z,2.30
2022-09-17T07:50:47.098Z,2.10
2022-09-17T07:51:47.107Z,1.60
2022-09-17T07:52:47.067Z,2.10
2022-09-17T07:53:47.051Z,1.90
2022-09-17T07:54:47.048Z,1.90
2022-09-17T07:55:47.042Z,1.90
2022-09-17T07:56:47.024Z,1.90
2022-09-17T07:57:47.071Z,2.10
2022-09-17T07:58:47.030Z,2.40
2022-09-17T07:59:47.068Z,2.30
2022-09-17T08:00:47.024Z,1.70
2022-09-17T08:01:47.095Z,2.20
2022-09-17T08:02:47.059Z,2.30
2022-09-17T08:03:46.987Z,1.70
2022-09-17T08:04:46.939Z,2.30
2022-09-17T08:05:46.922Z,2.30
2022-09-17T08:06:46.922Z,2.50
2022-09-17T08:07:46.902Z,2.50
2022-09-17T08:08:46.946Z,1.90
2022-09-17T08:09:46.894Z,2.50
2022-09-17T08:10:46.886Z,1.80
2022-09-17T08:12:02.134Z,1.80
2022-09-17T08:12:47.858Z,2.10
2022-09-17T08:13:46.876Z,2.10
2022-09-17T08:14:46.812Z,2.00
2022-09-17T08:15:46.867Z,2.00
2022-09-17T08:16:46.814Z,1.60
2022-09-17T08:17:46.786Z,2.20
2022-09-17T08:18:46.776Z,1.80
2022-09-17T08:19:46.795Z,2.10
2022-09-17T08:20:46.770Z,1.70
2022-09-17T08:21:46.805Z,2.10
2022-09-17T08:22:49.991Z,2.20
2022-09-17T08:23:46.801Z,1.80
2022-09-17T08:24:46.879Z,1.80
2022-09-17T08:25:46.707Z,2.20
2022-09-17T08:26:47.648Z,1.60
2022-09-17T08:27:46.725Z,1.80
2022-09-17T08:28:46.705Z,1.70
2022-09-17T08:29:46.717Z,1.40
2022-09-17T08:30:46.869Z,1.90
2022-09-17T08:31:46.663Z,2.00
2022-09-17T08:32:46.626Z,1.70
2022-09-17T08:33:46.665Z,1.70
2022-09-17T08:34:46.584Z,1.60
2022-09-17T08:35:46.581Z,2.00
2022-09-17T08:36:46.580Z,1.90
2022-09-17T08:37:46.573Z,1.60
2022-09-17T08:38:46.573Z,1.80
2022-09-17T08:39:46.561Z,1.60
2022-09-17T08:40:46.575Z,1.80
2022-09-17T08:41:46.513Z,1.70
2022-09-17T08:42:46.553Z,1.60
2022-09-17T08:43:46.502Z,1.80
2022-09-17T08:44:46.485Z,1.70
2022-09-17T08:45:46.468Z,1.40
2022-09-17T08:46:46.659Z,1.60
2022-09-17T08:47:46.496Z,1.60
2022-09-17T08:48:46.463Z,1.30
2022-09-17T08:49:46.454Z,1.90
2022-09-17T08:50:46.457Z,1.60
2022-09-17T08:51:46.573Z,1.90
2022-09-17T08:52:46.420Z,1.50
2022-09-17T08:53:46.477Z,1.60
2022-09-17T08:54:46.596Z,1.70
2022-09-17T08:55:46.380Z,1.70
2022-09-17T08:56:46.387Z,2.10
2022-09-17T08:57:46.660Z,1.80
2022-09-17T08:58:46.430Z,1.60
2022-09-17T08:59:46.321Z,1.30
2022-09-17T09:00:46.335Z,1.60
2022-09-17T09:01:46.442Z,1.70
2022-09-17T09:02:47.770Z,1.90
2022-09-17T09:03:46.276Z,1.30
2022-09-17T09:04:46.260Z,1.30
2022-09-17T09:05:46.596Z,1.40
2022-09-17T09:06:46.274Z,1.60
2022-09-17T09:07:46.359Z,1.60
2022-09-17T09:08:46.339Z,1.70
2022-09-17T09:09:46.198Z,1.60
2022-09-17T09:10:46.201Z,1.70
2022-09-17T09:11:46.219Z,1.70
2022-09-17T09:12:46.183Z,1.30
2022-09-17T09:13:46.162Z,1.90
2022-09-17T09:14:46.184Z,1.60
2022-09-17T09:15:46.178Z,1.20
2022-09-17T09:16:46.144Z,1.80
2022-09-17T09:17:46.121Z,1.50
2022-09-17T09:18:46.143Z,1.30
2022-09-17T09:19:47.551Z,1.40
2022-09-17T09:20:46.306Z,1.50
2022-09-17T09:21:46.086Z,1.40
2022-09-17T09:22:46.071Z,1.50
2022-09-17T09:23:46.120Z,1.40
2022-09-17T09:24:46.221Z,1.40
2022-09-17T09:25:46.025Z,1.20
2022-09-17T09:26:46.635Z,1.30
2022-09-17T09:27:46.006Z,1.30
2022-09-17T09:28:46.003Z,1.30
2022-09-17T09:29:46.003Z,1.30
2022-09-17T09:30:46.185Z,1.70
2022-09-17T09:31:46.016Z,1.40
2022-09-17T09:32:46.086Z,1.40
2022-09-17T09:33:48.104Z,1.40
2022-09-17T09:34:45.950Z,1.30
2022-09-17T09:35:45.915Z,1.20
2022-09-17T09:36:45.938Z,1.20
2022-09-17T09:37:45.910Z,1.20
2022-09-17T09:38:45.949Z,1.60
2022-09-17T09:39:46.386Z,1.50
2022-09-17T09:40:45.892Z,1.60
2022-09-17T09:41:45.897Z,1.50
2022-09-17T09:42:45.838Z,1.70
2022-09-17T09:44:03.151Z,1.30
2022-09-17T09:44:47.440Z,1.60
2022-09-17T09:45:45.831Z,1.10
2022-09-17T09:46:46.262Z,1.40
2022-09-17T09:47:45.845Z,1.40
2022-09-17T09:48:47.232Z,1.40
2022-09-17T09:49:45.787Z,1.20
2022-09-17T09:51:05.338Z,1.10
2022-09-17T09:51:46.841Z,1.50
2022-09-17T09:52:45.734Z,1.50
2022-09-17T09:53:45.762Z,1.40
2022-09-17T09:54:45.705Z,1.00
2022-09-17T09:55:45.713Z,1.70
2022-09-17T09:56:45.691Z,1.20
2022-09-17T09:57:45.662Z,1.10
2022-09-17T09:58:46.578Z,1.30
2022-09-17T09:59:45.653Z,1.40
2022-09-17T10:00:45.645Z,1.20
2022-09-17T10:01:45.720Z,1.30
2022-09-17T10:02:45.763Z,1.40
2022-09-17T10:03:45.627Z,1.20
2022-09-17T10:04:49.244Z,1.70
2022-09-17T10:05:46.659Z,1.40
2022-09-17T10:06:45.605Z,1.30
2022-09-17T10:07:45.625Z,1.30
2022-09-17T10:08:45.616Z,1.60
2022-09-17T10:09:45.607Z,1.40
2022-09-17T10:10:45.580Z,1.30
2022-09-17T10:11:45.518Z,1.10
2022-09-17T10:12:45.525Z,1.40
2022-09-17T10:13:45.518Z,1.60
2022-09-17T10:14:45.537Z,1.40
2022-09-17T10:15:45.580Z,1.30
2022-09-17T10:16:45.502Z,1.30
2022-09-17T10:17:45.451Z,1.20
2022-09-17T10:18:45.452Z,1.30
2022-09-17T10:19:45.642Z,1.20
2022-09-17T10:20:45.452Z,1.10
2022-09-17T10:21:45.399Z,1.30
2022-09-17T10:22:45.403Z,1.20
2022-09-17T10:23:45.403Z,1.50
2022-09-17T10:24:45.386Z,1.00
2022-09-17T10:25:45.367Z,1.30
2022-09-17T10:26:45.385Z,1.50
2022-09-17T10:27:45.350Z,1.20
2022-09-17T10:28:45.382Z,1.10
2022-09-17T10:29:45.320Z,1.40
2022-09-17T10:30:45.326Z,1.50
2022-09-17T10:31:45.348Z,1.30
2022-09-17T10:32:45.296Z,2.00
2022-09-17T10:33:45.306Z,1.40
2022-09-17T10:34:45.308Z,2.30
2022-09-17T10:35:45.256Z,1.60
2022-09-17T10:36:45.263Z,1.80
2022-09-17T10:37:45.222Z,1.60
2022-09-17T10:38:45.203Z,1.70
2022-09-17T10:39:45.496Z,1.70
2022-09-17T10:40:45.212Z,1.90
2022-09-17T10:41:45.216Z,1.90
2022-09-17T10:42:45.232Z,1.50
2022-09-17T10:43:45.181Z,1.80
2022-09-17T10:44:45.167Z,1.50
2022-09-17T10:45:45.193Z,1.70
2022-09-17T10:46:45.674Z,1.60
2022-09-17T10:47:45.208Z,2.10
2022-09-17T10:48:45.271Z,1.60
2022-09-17T10:49:45.172Z,1.50
2022-09-17T10:50:45.180Z,1.80
2022-09-17T10:51:45.389Z,1.80
2022-09-17T10:52:45.143Z,1.60
2022-09-17T10:53:45.060Z,1.40
2022-09-17T10:54:45.078Z,1.60
2022-09-17T10:55:45.146Z,2.10
2022-09-17T10:56:45.173Z,1.90
2022-09-17T10:57:45.114Z,2.00
2022-09-17T10:58:45.204Z,1.80
2022-09-17T10:59:45.950Z,1.20
2022-09-17T11:00:45.216Z,1.30
2022-09-17T11:01:46.036Z,1.40
2022-09-17T11:02:45.086Z,1.70
2022-09-17T11:03:45.031Z,1.50
2022-09-17T11:04:45.054Z,2.20
2022-09-17T11:05:45.058Z,1.40
2022-09-17T11:06:45.081Z,1.80
2022-09-17T11:07:45.015Z,1.30
2022-09-17T11:08:45.040Z,1.40
2022-09-17T11:09:44.997Z,1.20
2022-09-17T11:10:45.018Z,1.20
2022-09-17T11:11:44.890Z,1.30
2022-09-17T11:12:44.935Z,1.00
2022-09-17T11:13:45.019Z,1.00
2022-09-17T11:14:44.963Z,1.10
2022-09-17T11:15:45.631Z,1.40
2022-09-17T11:16:44.893Z,1.10
2022-09-17T11:17:44.897Z,1.40
2022-09-17T11:18:44.813Z,1.10
2022-09-17T11:19:45.762Z,1.20
2022-09-17T11:20:44.763Z,1.40
2022-09-17T11:21:44.774Z,1.30
2022-09-17T11:22:44.740Z,0.80
2022-09-17T11:23:44.800Z,1.00
2022-09-17T11:24:44.727Z,0.80
2022-09-17T11:25:44.713Z,1.00
2022-09-17T11:26:44.691Z,0.70
2022-09-17T11:27:44.716Z,1.00
2022-09-17T11:28:44.661Z,1.10
2022-09-17T11:29:44.693Z,0.90
2022-09-17T11:30:44.654Z,1.10
2022-09-17T11:31:44.691Z,1.00
2022-09-17T11:32:44.630Z,0.70
2022-09-17T11:33:44.623Z,0.60
2022-09-17T11:34:44.628Z,0.80
2022-09-17T11:35:44.609Z,0.70
2022-09-17T11:36:44.567Z,0.90
2022-09-17T11:37:44.567Z,0.70
2022-09-17T11:38:44.605Z,0.90
2022-09-17T11:39:44.600Z,1.30
2022-09-17T11:40:44.543Z,0.80
2022-09-17T11:41:44.517Z,0.90
2022-09-17T11:42:44.583Z,0.60
2022-09-17T11:43:44.512Z,0.50
2022-09-17T11:44:44.492Z,0.60
2022-09-17T11:45:44.510Z,0.70
2022-09-17T11:46:44.496Z,0.60
2022-09-17T11:47:44.456Z,0.70
2022-09-17T11:48:45.485Z,0.80
2022-09-17T11:49:44.458Z,1.00
2022-09-17T11:50:44.431Z,0.80
2022-09-17T11:51:44.436Z,0.70
2022-09-17T11:52:44.429Z,0.50
2022-09-17T11:53:44.415Z,0.80
2022-09-17T11:54:44.396Z,1.10
2022-09-17T11:55:44.393Z,0.80
2022-09-17T11:56:44.359Z,0.70
2022-09-17T11:57:44.745Z,0.50
2022-09-17T11:58:44.385Z,1.10
2022-09-17T11:59:44.340Z,0.60
2022-09-17T12:00:44.367Z,0.80
2022-09-17T12:01:44.396Z,0.50
2022-09-17T12:02:45.849Z,0.70
2022-09-17T12:03:44.461Z,0.50
2022-09-17T12:04:44.278Z,0.70
2022-09-17T12:05:44.264Z,0.70
2022-09-17T12:06:44.294Z,0.80
2022-09-17T12:07:44.263Z,0.80
2022-09-17T12:08:44.244Z,0.60
2022-09-17T12:09:44.221Z,1.20
2022-09-17T12:10:44.209Z,0.70
2022-09-17T12:11:44.191Z,0.80
2022-09-17T12:12:50.202Z,0.60
2022-09-17T12:13:45.196Z,0.90
2022-09-17T12:14:44.157Z,1.00
2022-09-17T12:15:44.234Z,0.80
2022-09-17T12:16:44.187Z,0.80
2022-09-17T12:17:44.132Z,0.70
2022-09-17T12:18:45.080Z,0.80
2022-09-17T12:19:44.115Z,0.80
2022-09-17T12:20:44.080Z,1.10
2022-09-17T12:21:44.129Z,0.80
2022-09-17T12:22:44.084Z,0.80
2022-09-17T12:23:44.073Z,0.90
2022-09-17T12:24:44.074Z,0.90
2022-09-17T12:25:44.036Z,0.70
2022-09-17T12:26:44.058Z,0.90
2022-09-17T12:27:44.022Z,1.00
2022-09-17T12:28:44.018Z,0.70
2022-09-17T12:29:44.011Z,0.80
2022-09-17T12:30:44.002Z,0.80
2022-09-17T12:31:44.063Z,0.70
2022-09-17T12:32:43.990Z,0.60
2022-09-17T12:33:43.983Z,0.50
2022-09-17T12:34:43.942Z,0.70
2022-09-17T12:36:04.569Z,0.60
2022-09-17T12:36:44.921Z,0.80
2022-09-17T12:37:43.935Z,0.70
2022-09-17T12:38:43.939Z,0.60
2022-09-17T12:39:43.897Z,0.70
2022-09-17T12:40:43.874Z,0.80
2022-09-17T12:41:43.876Z,0.70
2022-09-17T12:42:43.887Z,0.70
2022-09-17T12:43:43.867Z,0.80
2022-09-17T12:44:43.880Z,0.70
2022-09-17T12:45:47.412Z,0.60
2022-09-17T12:46:44.904Z,0.70
2022-09-17T12:47:43.807Z,0.70
2022-09-17T12:48:43.814Z,0.40
2022-09-17T12:49:43.814Z,0.50
2022-09-17T12:50:43.807Z,0.80
2022-09-17T12:51:43.758Z,0.50
2022-09-17T12:52:43.903Z,0.70
2022-09-17T12:53:43.752Z,0.50
2022-09-17T12:54:45.397Z,0.80
2022-09-17T12:55:43.942Z,0.60
2022-09-17T12:56:43.709Z,0.60
2022-09-17T12:57:43.680Z,0.50
2022-09-17T12:58:43.871Z,0.60
2022-09-17T12:59:43.676Z,0.60
2022-09-17T13:00:43.766Z,0.60
2022-09-17T13:01:43.753Z,0.40
2022-09-17T13:02:43.631Z,0.60
2022-09-17T13:03:43.620Z,0.60
2022-09-17T13:05:00.432Z,0.90
2022-09-17T13:05:44.657Z,0.70
2022-09-17T13:06:43.592Z,0.70
2022-09-17T13:07:44.440Z,0.60
2022-09-17T13:08:43.585Z,0.80
2022-09-17T13:09:43.576Z,0.70
2022-09-17T13:10:43.570Z,0.80
2022-09-17T13:11:43.549Z,0.70
2022-09-17T13:12:43.520Z,0.70
2022-09-17T13:13:43.674Z,0.80
2022-09-17T13:14:43.954Z,0.90
2022-09-17T13:15:43.961Z,0.70
2022-09-17T13:16:43.585Z,0.80
2022-09-17T13:17:43.500Z,0.80
2022-09-17T13:18:59.437Z,0.70